LSZL

Locarno Airport

Airport
ICAO code
LSZL
IATA Code
ZJI
Summary
ICAO Region
EUR
ICAO Territory
Location

Gordola, Ticino

Serving
Locarno
Elevation
650 ft
Coordinates
46° 9' 39" N , 8° 52' 43" E
Metar
Observation
LSZL 282150Z AUTO 00000KT 7000NDV FEW022 SCT032 04/03 Q1016 RMK
Station
LOCARNO
Date/Time
2022-11-28 21:50:00
Wind direction
Wind speed
00 kts
Lowest cloud amount
few clouds
Temperature
4°C
Dew point
3°C
Humidity
93%
QNH
1016 hPa
Weather condition
n/a

Locarno Airport, also known as Locarno-Magadino Airport, is a mixed civilian and military airport (mil ICAO code LSMO), located near the city of Locarno, Ticino, Switzerland.

Climatology

Temperate oceanic climate (Köppen climate classification Cfb)

Runways

Designator Length Width Surface Rops
08C/26C 700 30 Grass No/No
08L/26R 800 23 ASPH No/No

Airport map

Aerial View

SKYbrary Partners:

Safety knowledge contributed by: